sensor_id;sensor_type;location;lat;lon;timestamp;pressure;altitude;pressure_sealevel;temperature;humidity
50652;BME280;61429;52.086;5.240;2022-09-30T00:00:25;100707.0;;;9.72;73.33
50652;BME280;61429;52.086;5.240;2022-09-30T00:02:01;100711.0;;;9.69;73.24
50652;BME280;61429;52.086;5.240;2022-09-30T00:03:38;100708.0;;;9.65;73.33
50652;BME280;61429;52.086;5.240;2022-09-30T00:06:52;100707.0;;;9.68;72.8
50652;BME280;61429;52.086;5.240;2022-09-30T00:08:29;100710.0;;;9.52;72.81
50652;BME280;61429;52.086;5.240;2022-09-30T00:10:07;100714.0;;;9.53;72.84
50652;BME280;61429;52.086;5.240;2022-09-30T00:13:22;100715.0;;;9.61;72.52
50652;BME280;61429;52.086;5.240;2022-09-30T00:14:58;100711.0;;;9.58;72.55
50652;BME280;61429;52.086;5.240;2022-09-30T00:16:35;100712.0;;;9.56;73.27
50652;BME280;61429;52.086;5.240;2022-09-30T00:18:12;100712.0;;;9.58;73.08
50652;BME280;61429;52.086;5.240;2022-09-30T00:21:25;100706.0;;;9.58;73.48
50652;BME280;61429;52.086;5.240;2022-09-30T00:23:02;100708.0;;;9.39;74.11
50652;BME280;61429;52.086;5.240;2022-09-30T00:24:39;100710.0;;;9.39;74.05
50652;BME280;61429;52.086;5.240;2022-09-30T00:27:54;100710.0;;;9.48;73.8
50652;BME280;61429;52.086;5.240;2022-09-30T00:29:30;100711.0;;;9.31;74.11
50652;BME280;61429;52.086;5.240;2022-09-30T00:31:10;100713.0;;;9.33;74.33
50652;BME280;61429;52.086;5.240;2022-09-30T00:32:47;100712.0;;;9.35;73.72
50652;BME280;61429;52.086;5.240;2022-09-30T00:36:00;100712.0;;;9.33;73.47
50652;BME280;61429;52.086;5.240;2022-09-30T00:37:37;100711.0;;;9.26;73.42
50652;BME280;61429;52.086;5.240;2022-09-30T00:39:16;100713.0;;;9.22;73.74
50652;BME280;61429;52.086;5.240;2022-09-30T00:42:30;100718.0;;;9.27;73.75
50652;BME280;61429;52.086;5.240;2022-09-30T00:45:11;100718.0;;;9.21;73.94
50652;BME280;61429;52.086;5.240;2022-09-30T00:46:49;100719.0;;;9.22;74.42
50652;BME280;61429;52.086;5.240;2022-09-30T00:48:30;100724.0;;;9.14;74.45
50652;BME280;61429;52.086;5.240;2022-09-30T00:50:19;100725.0;;;9.09;74.64
50652;BME280;61429;52.086;5.240;2022-09-30T00:52:12;100721.0;;;9.06;74.8
50652;BME280;61429;52.086;5.240;2022-09-30T00:53:51;100715.0;;;9.11;74.58
50652;BME280;61429;52.086;5.240;2022-09-30T00:57:21;100712.0;;;9.16;74.56
50652;BME280;61429;52.086;5.240;2022-09-30T00:59:02;100713.0;;;9.15;74.16
50652;BME280;61429;52.086;5.240;2022-09-30T01:00:41;100718.0;;;9.06;74.73
50652;BME280;61429;52.086;5.240;2022-09-30T01:02:18;100722.0;;;8.94;75.47
50652;BME280;61429;52.086;5.240;2022-09-30T01:05:37;100719.0;;;8.98;75.39
50652;BME280;61429;52.086;5.240;2022-09-30T01:07:12;100713.0;;;9.19;74.41
50652;BME280;61429;52.086;5.240;2022-09-30T01:08:50;100713.0;;;9.17;73.77
50652;BME280;61429;52.086;5.240;2022-09-30T01:10:27;100710.0;;;9.14;73.39
50652;BME280;61429;52.086;5.240;2022-09-30T01:13:45;100707.0;;;9.14;73.16
50652;BME280;61429;52.086;5.240;2022-09-30T01:15:36;100709.0;;;9.09;73.13
50652;BME280;61429;52.086;5.240;2022-09-30T01:17:31;100713.0;;;9.02;73.22
50652;BME280;61429;52.086;5.240;2022-09-30T01:19:25;100712.0;;;9.14;73.02
50652;BME280;61429;52.086;5.240;2022-09-30T01:21:58;100714.0;;;9.08;73.44
50652;BME280;61429;52.086;5.240;2022-09-30T01:24:57;100712.0;;;9.01;74.11
50652;BME280;61429;52.086;5.240;2022-09-30T01:28:24;100710.0;;;8.99;74.19
50652;BME280;61429;52.086;5.240;2022-09-30T01:30:11;100717.0;;;8.9;74.62
50652;BME280;61429;52.086;5.240;2022-09-30T01:31:56;100717.0;;;8.91;74.52
50652;BME280;61429;52.086;5.240;2022-09-30T01:33:44;100727.0;;;8.75;75.05
50652;BME280;61429;52.086;5.240;2022-09-30T01:37:20;100726.0;;;8.76;75.11
50652;BME280;61429;52.086;5.240;2022-09-30T01:39:11;100725.0;;;8.84;74.88
50652;BME280;61429;52.086;5.240;2022-09-30T01:41:00;100725.0;;;8.85;74.66
50652;BME280;61429;52.086;5.240;2022-09-30T01:42:48;100726.0;;;8.92;74.44
50652;BME280;61429;52.086;5.240;2022-09-30T01:44:35;100733.0;;;8.85;74.24
50652;BME280;61429;52.086;5.240;2022-09-30T01:46:26;100730.0;;;8.98;74.25
50652;BME280;61429;52.086;5.240;2022-09-30T01:48:14;100731.0;;;8.92;74.36
50652;BME280;61429;52.086;5.240;2022-09-30T01:51:40;100728.0;;;8.98;74.36
50652;BME280;61429;52.086;5.240;2022-09-30T01:53:24;100724.0;;;8.94;74.41
50652;BME280;61429;52.086;5.240;2022-09-30T01:55:11;100722.0;;;8.92;74.52
50652;BME280;61429;52.086;5.240;2022-09-30T01:56:52;100728.0;;;8.89;74.91
50652;BME280;61429;52.086;5.240;2022-09-30T01:58:39;100731.0;;;8.97;74.63
50652;BME280;61429;52.086;5.240;2022-09-30T02:01:55;100736.0;;;8.9;74.33
50652;BME280;61429;52.086;5.240;2022-09-30T02:03:41;100740.0;;;8.91;74.14
50652;BME280;61429;52.086;5.240;2022-09-30T02:05:24;100740.0;;;8.99;73.84
50652;BME280;61429;52.086;5.240;2022-09-30T02:07:08;100736.0;;;8.96;73.94
50652;BME280;61429;52.086;5.240;2022-09-30T02:10:32;100737.0;;;8.9;74.3
50652;BME280;61429;52.086;5.240;2022-09-30T02:12:13;100730.0;;;8.94;74.53
50652;BME280;61429;52.086;5.240;2022-09-30T02:13:58;100732.0;;;8.93;74.36
50652;BME280;61429;52.086;5.240;2022-09-30T02:15:41;100732.0;;;8.89;74.47
50652;BME280;61429;52.086;5.240;2022-09-30T02:17:23;100737.0;;;8.85;73.89
50652;BME280;61429;52.086;5.240;2022-09-30T02:20:52;100731.0;;;8.96;73.62
50652;BME280;61429;52.086;5.240;2022-09-30T02:22:35;100733.0;;;8.96;73.73
50652;BME280;61429;52.086;5.240;2022-09-30T02:24:16;100733.0;;;8.97;73.38
50652;BME280;61429;52.086;5.240;2022-09-30T02:25:59;100732.0;;;8.82;73.8
50652;BME280;61429;52.086;5.240;2022-09-30T02:29:27;100726.0;;;8.98;73.72
50652;BME280;61429;52.086;5.240;2022-09-30T02:31:07;100731.0;;;8.75;74.89
50652;BME280;61429;52.086;5.240;2022-09-30T02:32:47;100730.0;;;8.98;74.2
50652;BME280;61429;52.086;5.240;2022-09-30T02:34:28;100726.0;;;8.89;74.3
50652;BME280;61429;52.086;5.240;2022-09-30T02:37:56;100725.0;;;8.97;74.02
50652;BME280;61429;52.086;5.240;2022-09-30T02:39:40;100725.0;;;9.01;74.17
50652;BME280;61429;52.086;5.240;2022-09-30T02:41:23;100727.0;;;9.1;73.92
50652;BME280;61429;52.086;5.240;2022-09-30T02:43:03;100723.0;;;9.14;73.94
50652;BME280;61429;52.086;5.240;2022-09-30T02:44:40;100724.0;;;9.07;74.58
50652;BME280;61429;52.086;5.240;2022-09-30T02:48:08;100724.0;;;9.1;74.69
50652;BME280;61429;52.086;5.240;2022-09-30T02:49:56;100727.0;;;9.06;75.2
50652;BME280;61429;52.086;5.240;2022-09-30T02:51:44;100728.0;;;9.14;75.58
50652;BME280;61429;52.086;5.240;2022-09-30T02:53:30;100730.0;;;9.14;76.12
50652;BME280;61429;52.086;5.240;2022-09-30T02:55:18;100730.0;;;9.14;76.11
50652;BME280;61429;52.086;5.240;2022-09-30T02:58:39;100724.0;;;9.1;76.03
50652;BME280;61429;52.086;5.240;2022-09-30T03:00:17;100722.0;;;9.06;75.69
50652;BME280;61429;52.086;5.240;2022-09-30T03:01:55;100723.0;;;8.98;75.62
50652;BME280;61429;52.086;5.240;2022-09-30T03:03:34;100725.0;;;8.89;75.89
50652;BME280;61429;52.086;5.240;2022-09-30T03:06:52;100727.0;;;8.86;75.83
50652;BME280;61429;52.086;5.240;2022-09-30T03:08:30;100730.0;;;8.76;76.09
50652;BME280;61429;52.086;5.240;2022-09-30T03:10:11;100732.0;;;8.75;75.49
50652;BME280;61429;52.086;5.240;2022-09-30T03:11:49;100730.0;;;8.73;75.39
50652;BME280;61429;52.086;5.240;2022-09-30T03:16:03;100735.0;;;8.75;75.52
50652;BME280;61429;52.086;5.240;2022-09-30T03:17:56;100733.0;;;8.69;75.47
50652;BME280;61429;52.086;5.240;2022-09-30T03:19:59;100731.0;;;8.66;75.52
50652;BME280;61429;52.086;5.240;2022-09-30T03:21:54;100736.0;;;8.63;76.09
50652;BME280;61429;52.086;5.240;2022-09-30T03:23:53;100733.0;;;8.58;76.08
50652;BME280;61429;52.086;5.240;2022-09-30T03:25:42;100738.0;;;8.67;75.39
50652;BME280;61429;52.086;5.240;2022-09-30T03:27:28;100742.0;;;8.77;75.22
50652;BME280;61429;52.086;5.240;2022-09-30T03:29:16;100749.0;;;8.82;74.97
50652;BME280;61429;52.086;5.240;2022-09-30T03:31:04;100750.0;;;8.81;74.72
50652;BME280;61429;52.086;5.240;2022-09-30T03:32:54;100757.0;;;8.77;74.42
50652;BME280;61429;52.086;5.240;2022-09-30T03:36:37;100762.0;;;8.73;74.66
50652;BME280;61429;52.086;5.240;2022-09-30T03:38:24;100769.0;;;8.58;75.14
50652;BME280;61429;52.086;5.240;2022-09-30T03:40:14;100776.0;;;8.59;74.77
50652;BME280;61429;52.086;5.240;2022-09-30T03:41:57;100774.0;;;8.49;74.92
50652;BME280;61429;52.086;5.240;2022-09-30T03:43:42;100774.0;;;8.53;74.92
50652;BME280;61429;52.086;5.240;2022-09-30T03:45:27;100778.0;;;8.59;75.02
50652;BME280;61429;52.086;5.240;2022-09-30T03:48:48;100781.0;;;8.64;74.64
50652;BME280;61429;52.086;5.240;2022-09-30T03:50:27;100786.0;;;8.42;75.58
50652;BME280;61429;52.086;5.240;2022-09-30T03:52:05;100784.0;;;8.48;75.25
50652;BME280;61429;52.086;5.240;2022-09-30T03:53:43;100777.0;;;8.59;74.97
50652;BME280;61429;52.086;5.240;2022-09-30T03:57:02;100783.0;;;8.43;75.59
50652;BME280;61429;52.086;5.240;2022-09-30T03:58:41;100789.0;;;8.53;74.77
50652;BME280;61429;52.086;5.240;2022-09-30T04:00:18;100788.0;;;8.43;74.63
50652;BME280;61429;52.086;5.240;2022-09-30T04:01:56;100787.0;;;8.38;74.66
50652;BME280;61429;52.086;5.240;2022-09-30T04:05:11;100785.0;;;8.31;74.87
50652;BME280;61429;52.086;5.240;2022-09-30T04:06:48;100788.0;;;8.34;74.83
50652;BME280;61429;52.086;5.240;2022-09-30T04:08:24;100795.0;;;8.34;74.47
50652;BME280;61429;52.086;5.240;2022-09-30T04:11:36;100792.0;;;8.25;74.86
50652;BME280;61429;52.086;5.240;2022-09-30T04:13:12;100790.0;;;8.27;74.86
50652;BME280;61429;52.086;5.240;2022-09-30T04:14:48;100787.0;;;8.27;74.36
50652;BME280;61429;52.086;5.240;2022-09-30T04:18:01;100790.0;;;8.2;74.19
50652;BME280;61429;52.086;5.240;2022-09-30T04:19:39;100795.0;;;8.2;74.49
50652;BME280;61429;52.086;5.240;2022-09-30T04:21:16;100797.0;;;8.09;75.25
50652;BME280;61429;52.086;5.240;2022-09-30T04:22:52;100803.0;;;8.08;75.56
50652;BME280;61429;52.086;5.240;2022-09-30T04:26:10;100803.0;;;8.06;75.42
50652;BME280;61429;52.086;5.240;2022-09-30T04:27:48;100806.0;;;7.99;75.78
50652;BME280;61429;52.086;5.240;2022-09-30T04:29:24;100811.0;;;7.86;76.08
50652;BME280;61429;52.086;5.240;2022-09-30T04:32:42;100815.0;;;7.87;76.3
50652;BME280;61429;52.086;5.240;2022-09-30T04:34:21;100812.0;;;7.95;75.94
50652;BME280;61429;52.086;5.240;2022-09-30T04:35:58;100816.0;;;7.89;76.16
50652;BME280;61429;52.086;5.240;2022-09-30T04:37:35;100815.0;;;7.75;76.77
50652;BME280;61429;52.086;5.240;2022-09-30T04:40:49;100816.0;;;7.76;76.67
50652;BME280;61429;52.086;5.240;2022-09-30T04:42:26;100815.0;;;7.76;76.66
50652;BME280;61429;52.086;5.240;2022-09-30T04:44:05;100815.0;;;7.72;76.58
50652;BME280;61429;52.086;5.240;2022-09-30T04:47:20;100815.0;;;7.76;76.05
50652;BME280;61429;52.086;5.240;2022-09-30T04:48:56;100814.0;;;7.55;76.02
50652;BME280;61429;52.086;5.240;2022-09-30T04:50:33;100816.0;;;7.65;75.63
50652;BME280;61429;52.086;5.240;2022-09-30T04:52:09;100816.0;;;7.66;75.27
50652;BME280;61429;52.086;5.240;2022-09-30T04:55:24;100821.0;;;7.85;75.13
50652;BME280;61429;52.086;5.240;2022-09-30T04:57:00;100819.0;;;7.77;75.27
50652;BME280;61429;52.086;5.240;2022-09-30T04:58:36;100817.0;;;7.71;74.84
50652;BME280;61429;52.086;5.240;2022-09-30T05:01:49;100816.0;;;7.46;75.83
50652;BME280;61429;52.086;5.240;2022-09-30T05:03:25;100820.0;;;7.65;75.5
50652;BME280;61429;52.086;5.240;2022-09-30T05:05:02;100824.0;;;7.67;75.44
50652;BME280;61429;52.086;5.240;2022-09-30T05:08:16;100830.0;;;7.68;75.38
50652;BME280;61429;52.086;5.240;2022-09-30T05:09:52;100830.0;;;7.58;75.94
50652;BME280;61429;52.086;5.240;2022-09-30T05:11:28;100833.0;;;7.6;76.28
50652;BME280;61429;52.086;5.240;2022-09-30T05:13:04;100837.0;;;7.57;76.33
50652;BME280;61429;52.086;5.240;2022-09-30T05:16:17;100834.0;;;7.56;76.48
50652;BME280;61429;52.086;5.240;2022-09-30T05:17:54;100840.0;;;7.55;76.69
50652;BME280;61429;52.086;5.240;2022-09-30T05:19:30;100835.0;;;7.59;76.58
50652;BME280;61429;52.086;5.240;2022-09-30T05:22:43;100835.0;;;7.62;76.3
50652;BME280;61429;52.086;5.240;2022-09-30T05:24:21;100826.0;;;7.67;75.74
50652;BME280;61429;52.086;5.240;2022-09-30T05:25:57;100834.0;;;7.74;75.27
50652;BME280;61429;52.086;5.240;2022-09-30T05:29:10;100842.0;;;7.72;75.63
50652;BME280;61429;52.086;5.240;2022-09-30T05:30:46;100849.0;;;7.67;75.8
50652;BME280;61429;52.086;5.240;2022-09-30T05:32:24;100843.0;;;7.71;75.45
50652;BME280;61429;52.086;5.240;2022-09-30T05:34:00;100843.0;;;7.69;75.39
50652;BME280;61429;52.086;5.240;2022-09-30T05:37:15;100843.0;;;7.64;75.55
50652;BME280;61429;52.086;5.240;2022-09-30T05:38:52;100844.0;;;7.6;75.33
50652;BME280;61429;52.086;5.240;2022-09-30T05:40:29;100842.0;;;7.59;75.25
50652;BME280;61429;52.086;5.240;2022-09-30T05:43:44;100840.0;;;7.61;75.08
50652;BME280;61429;52.086;5.240;2022-09-30T05:45:20;100849.0;;;7.62;75.11
50652;BME280;61429;52.086;5.240;2022-09-30T05:46:58;100845.0;;;7.49;75.37
50652;BME280;61429;52.086;5.240;2022-09-30T05:50:11;100846.0;;;7.54;75.22
50652;BME280;61429;52.086;5.240;2022-09-30T05:51:47;100850.0;;;7.49;75.53
50652;BME280;61429;52.086;5.240;2022-09-30T05:53:23;100850.0;;;7.61;75.14
50652;BME280;61429;52.086;5.240;2022-09-30T05:55:00;100855.0;;;7.61;75.3
50652;BME280;61429;52.086;5.240;2022-09-30T05:58:13;100859.0;;;7.56;76.05
50652;BME280;61429;52.086;5.240;2022-09-30T05:59:50;100856.0;;;7.59;76.47
50652;BME280;61429;52.086;5.240;2022-09-30T06:01:27;100855.0;;;7.65;76.73
50652;BME280;61429;52.086;5.240;2022-09-30T06:04:39;100858.0;;;7.63;77.52
50652;BME280;61429;52.086;5.240;2022-09-30T06:06:15;100859.0;;;7.72;77.31
50652;BME280;61429;52.086;5.240;2022-09-30T06:07:52;100865.0;;;7.77;77.2
50652;BME280;61429;52.086;5.240;2022-09-30T06:11:09;100865.0;;;7.75;77.41
50652;BME280;61429;52.086;5.240;2022-09-30T06:12:46;100858.0;;;7.68;78.05
50652;BME280;61429;52.086;5.240;2022-09-30T06:14:22;100862.0;;;7.71;77.95
50652;BME280;61429;52.086;5.240;2022-09-30T06:16:00;100866.0;;;7.7;78.19
50652;BME280;61429;52.086;5.240;2022-09-30T06:19:12;100871.0;;;7.58;78.17
50652;BME280;61429;52.086;5.240;2022-09-30T06:26:15;100870.0;;;7.45;78.98
50652;BME280;61429;52.086;5.240;2022-09-30T06:27:51;100871.0;;;7.55;78.55
50652;BME280;61429;52.086;5.240;2022-09-30T06:29:27;100873.0;;;7.57;78.59
50652;BME280;61429;52.086;5.240;2022-09-30T06:31:05;100873.0;;;7.68;78.55
50652;BME280;61429;52.086;5.240;2022-09-30T06:32:41;100881.0;;;7.81;78.47
50652;BME280;61429;52.086;5.240;2022-09-30T06:35:55;100880.0;;;7.81;78.69
50652;BME280;61429;52.086;5.240;2022-09-30T06:37:31;100884.0;;;7.87;79.08
50652;BME280;61429;52.086;5.240;2022-09-30T06:39:07;100884.0;;;7.84;79.22
50652;BME280;61429;52.086;5.240;2022-09-30T06:42:23;100885.0;;;7.95;79.72
50652;BME280;61429;52.086;5.240;2022-09-30T06:44:00;100880.0;;;7.91;80.52
50652;BME280;61429;52.086;5.240;2022-09-30T06:45:37;100883.0;;;7.94;80.25
50652;BME280;61429;52.086;5.240;2022-09-30T06:47:13;100890.0;;;8.14;80.0
50652;BME280;61429;52.086;5.240;2022-09-30T06:50:30;100889.0;;;8.15;79.99
50652;BME280;61429;52.086;5.240;2022-09-30T06:52:08;100887.0;;;8.03;80.74
50652;BME280;61429;52.086;5.240;2022-09-30T06:53:45;100891.0;;;8.18;80.84
50652;BME280;61429;52.086;5.240;2022-09-30T06:57:04;100888.0;;;8.2;80.99
50652;BME280;61429;52.086;5.240;2022-09-30T06:58:42;100891.0;;;8.27;81.05
50652;BME280;61429;52.086;5.240;2022-09-30T07:00:18;100888.0;;;8.58;80.12
50652;BME280;61429;52.086;5.240;2022-09-30T07:01:54;100888.0;;;8.59;80.22
50652;BME280;61429;52.086;5.240;2022-09-30T07:05:10;100892.0;;;8.78;79.95
50652;BME280;61429;52.086;5.240;2022-09-30T07:06:46;100889.0;;;8.84;79.73
50652;BME280;61429;52.086;5.240;2022-09-30T07:08:26;100891.0;;;8.89;79.77
50652;BME280;61429;52.086;5.240;2022-09-30T07:11:42;100896.0;;;8.97;80.11
50652;BME280;61429;52.086;5.240;2022-09-30T07:13:19;100900.0;;;9.14;79.91
50652;BME280;61429;52.086;5.240;2022-09-30T07:14:56;100897.0;;;9.24;80.08
50652;BME280;61429;52.086;5.240;2022-09-30T07:16:33;100894.0;;;9.33;80.05
50652;BME280;61429;52.086;5.240;2022-09-30T07:19:46;100896.0;;;9.48;79.97
50652;BME280;61429;52.086;5.240;2022-09-30T07:21:22;100887.0;;;9.65;79.78
50652;BME280;61429;52.086;5.240;2022-09-30T07:22:59;100888.0;;;9.68;80.02
50652;BME280;61429;52.086;5.240;2022-09-30T07:26:11;100880.0;;;9.84;79.84
50652;BME280;61429;52.086;5.240;2022-09-30T07:27:48;100881.0;;;9.92;79.66
50652;BME280;61429;52.086;5.240;2022-09-30T07:29:24;100880.0;;;9.93;80.03
50652;BME280;61429;52.086;5.240;2022-09-30T07:32:47;100884.0;;;10.06;79.75
50652;BME280;61429;52.086;5.240;2022-09-30T07:34:23;100883.0;;;10.1;79.72
50652;BME280;61429;52.086;5.240;2022-09-30T07:36:00;100875.0;;;10.16;79.66
50652;BME280;61429;52.086;5.240;2022-09-30T07:37:36;100878.0;;;10.16;79.87
50652;BME280;61429;52.086;5.240;2022-09-30T07:40:53;100873.0;;;10.29;79.47
50652;BME280;61429;52.086;5.240;2022-09-30T07:42:32;100877.0;;;10.42;79.36
50652;BME280;61429;52.086;5.240;2022-09-30T07:44:13;100872.0;;;10.46;79.38
50652;BME280;61429;52.086;5.240;2022-09-30T07:45:50;100873.0;;;10.66;79.12
50652;BME280;61429;52.086;5.240;2022-09-30T07:49:06;100872.0;;;10.65;79.41
50652;BME280;61429;52.086;5.240;2022-09-30T07:50:52;100876.0;;;10.76;79.39
50652;BME280;61429;52.086;5.240;2022-09-30T07:52:28;100868.0;;;10.84;79.33
50652;BME280;61429;52.086;5.240;2022-09-30T07:55:43;100869.0;;;10.97;78.72
50652;BME280;61429;52.086;5.240;2022-09-30T07:57:20;100870.0;;;11.07;78.61
50652;BME280;61429;52.086;5.240;2022-09-30T07:58:59;100872.0;;;11.11;78.38
50652;BME280;61429;52.086;5.240;2022-09-30T08:00:38;100866.0;;;11.22;78.03
50652;BME280;61429;52.086;5.240;2022-09-30T08:03:54;100865.0;;;11.36;77.81
50652;BME280;61429;52.086;5.240;2022-09-30T08:05:31;100864.0;;;11.34;77.91
50652;BME280;61429;52.086;5.240;2022-09-30T08:07:08;100867.0;;;11.49;77.61
50652;BME280;61429;52.086;5.240;2022-09-30T08:10:21;100867.0;;;11.5;77.53
50652;BME280;61429;52.086;5.240;2022-09-30T08:11:58;100862.0;;;11.61;77.16
50652;BME280;61429;52.086;5.240;2022-09-30T08:13:37;100860.0;;;11.71;76.97
50652;BME280;61429;52.086;5.240;2022-09-30T08:15:13;100862.0;;;11.77;76.99
50652;BME280;61429;52.086;5.240;2022-09-30T08:18:27;100865.0;;;11.82;77.08
50652;BME280;61429;52.086;5.240;2022-09-30T08:20:04;100859.0;;;11.94;76.72
50652;BME280;61429;52.086;5.240;2022-09-30T08:21:41;100860.0;;;12.02;76.77
50652;BME280;61429;52.086;5.240;2022-09-30T08:24:54;100863.0;;;12.05;76.72
50652;BME280;61429;52.086;5.240;2022-09-30T08:26:30;100865.0;;;12.19;76.77
50652;BME280;61429;52.086;5.240;2022-09-30T08:28:06;100864.0;;;12.32;76.75
50652;BME280;61429;52.086;5.240;2022-09-30T08:29:42;100865.0;;;12.45;76.66
50652;BME280;61429;52.086;5.240;2022-09-30T08:32:57;100868.0;;;12.46;76.47
50652;BME280;61429;52.086;5.240;2022-09-30T08:34:34;100873.0;;;12.58;75.97
50652;BME280;61429;52.086;5.240;2022-09-30T08:36:12;100874.0;;;12.6;76.22
50652;BME280;61429;52.086;5.240;2022-09-30T08:39:27;100872.0;;;12.78;76.16
50652;BME280;61429;52.086;5.240;2022-09-30T08:41:13;100873.0;;;12.91;75.73
50652;BME280;61429;52.086;5.240;2022-09-30T08:43:09;100868.0;;;12.95;75.74
50652;BME280;61429;52.086;5.240;2022-09-30T08:45:02;100869.0;;;13.11;75.97
50652;BME280;61429;52.086;5.240;2022-09-30T08:46:46;100867.0;;;13.3;75.3
50652;BME280;61429;52.086;5.240;2022-09-30T08:50:22;100867.0;;;13.41;74.92
50652;BME280;61429;52.086;5.240;2022-09-30T08:52:11;100869.0;;;13.6;75.19
50652;BME280;61429;52.086;5.240;2022-09-30T08:53:50;100870.0;;;13.72;75.06
50652;BME280;61429;52.086;5.240;2022-09-30T08:55:40;100869.0;;;13.95;74.24
50652;BME280;61429;52.086;5.240;2022-09-30T08:57:18;100869.0;;;14.13;73.47
50652;BME280;61429;52.086;5.240;2022-09-30T09:00:40;100868.0;;;14.22;73.09
50652;BME280;61429;52.086;5.240;2022-09-30T09:02:21;100871.0;;;14.27;73.11
50652;BME280;61429;52.086;5.240;2022-09-30T09:04:00;100880.0;;;14.44;72.58
50652;BME280;61429;52.086;5.240;2022-09-30T09:05:44;100883.0;;;14.59;72.45
50652;BME280;61429;52.086;5.240;2022-09-30T09:07:34;100886.0;;;14.8;71.77
50652;BME280;61429;52.086;5.240;2022-09-30T09:11:20;100884.0;;;14.89;71.45
50652;BME280;61429;52.086;5.240;2022-09-30T09:13:28;100877.0;;;15.01;70.97
50652;BME280;61429;52.086;5.240;2022-09-30T09:15:28;100875.0;;;15.12;70.55
50652;BME280;61429;52.086;5.240;2022-09-30T09:17:35;100872.0;;;15.28;69.78
50652;BME280;61429;52.086;5.240;2022-09-30T09:19:23;100865.0;;;15.4;70.16
50652;BME280;61429;52.086;5.240;2022-09-30T09:21:10;100861.0;;;15.53;68.83
50652;BME280;61429;52.086;5.240;2022-09-30T09:22:53;100861.0;;;15.62;68.02
50652;BME280;61429;52.086;5.240;2022-09-30T09:24:35;100860.0;;;15.7;67.69
50652;BME280;61429;52.086;5.240;2022-09-30T09:26:16;100860.0;;;15.71;67.53
50652;BME280;61429;52.086;5.240;2022-09-30T09:29:38;100867.0;;;15.82;66.77
50652;BME280;61429;52.086;5.240;2022-09-30T09:31:19;100865.0;;;15.81;66.45
50652;BME280;61429;52.086;5.240;2022-09-30T09:32:59;100868.0;;;15.8;66.47
50652;BME280;61429;52.086;5.240;2022-09-30T09:34:38;100867.0;;;15.82;66.25
50652;BME280;61429;52.086;5.240;2022-09-30T09:38:32;100872.0;;;15.75;67.2
50652;BME280;61429;52.086;5.240;2022-09-30T09:40:21;100868.0;;;15.89;67.02
50652;BME280;61429;52.086;5.240;2022-09-30T09:42:18;100864.0;;;16.02;66.63
50652;BME280;61429;52.086;5.240;2022-09-30T09:44:12;100855.0;;;15.92;66.28
50652;BME280;61429;52.086;5.240;2022-09-30T09:45:57;100850.0;;;16.09;65.98
50652;BME280;61429;52.086;5.240;2022-09-30T09:47:38;100853.0;;;16.07;65.6
50652;BME280;61429;52.086;5.240;2022-09-30T09:49:33;100852.0;;;16.05;66.02
50652;BME280;61429;52.086;5.240;2022-09-30T09:53:08;100856.0;;;15.93;66.44
50652;BME280;61429;52.086;5.240;2022-09-30T09:54:55;100855.0;;;16.15;65.24
50652;BME280;61429;52.086;5.240;2022-09-30T09:56:32;100859.0;;;16.2;64.02
50652;BME280;61429;52.086;5.240;2022-09-30T09:58:11;100863.0;;;15.9;64.05
50652;BME280;61429;52.086;5.240;2022-09-30T09:59:57;100868.0;;;15.94;63.84
50652;BME280;61429;52.086;5.240;2022-09-30T10:03:19;100870.0;;;16.02;64.09
50652;BME280;61429;52.086;5.240;2022-09-30T10:05:00;100872.0;;;16.11;63.95
50652;BME280;61429;52.086;5.240;2022-09-30T10:06:43;100867.0;;;16.07;63.89
50652;BME280;61429;52.086;5.240;2022-09-30T10:08:23;100864.0;;;15.93;64.38
50652;BME280;61429;52.086;5.240;2022-09-30T10:12:17;100870.0;;;15.99;64.66
50652;BME280;61429;52.086;5.240;2022-09-30T10:14:00;100868.0;;;16.12;64.34
50652;BME280;61429;52.086;5.240;2022-09-30T10:15:41;100870.0;;;16.14;64.5
50652;BME280;61429;52.086;5.240;2022-09-30T10:17:19;100870.0;;;16.11;64.55
50652;BME280;61429;52.086;5.240;2022-09-30T10:18:57;100867.0;;;16.11;64.39
50652;BME280;61429;52.086;5.240;2022-09-30T10:20:35;100860.0;;;16.16;64.85
50652;BME280;61429;52.086;5.240;2022-09-30T10:23:57;100862.0;;;16.34;64.2
50652;BME280;61429;52.086;5.240;2022-09-30T10:25:33;100862.0;;;16.37;64.44
50652;BME280;61429;52.086;5.240;2022-09-30T10:27:25;100860.0;;;16.28;64.95
50652;BME280;61429;52.086;5.240;2022-09-30T10:29:24;100864.0;;;16.34;64.8
50652;BME280;61429;52.086;5.240;2022-09-30T10:31:04;100863.0;;;16.12;63.54
50652;BME280;61429;52.086;5.240;2022-09-30T10:34:24;100860.0;;;16.31;63.41
50652;BME280;61429;52.086;5.240;2022-09-30T10:36:05;100860.0;;;16.4;63.34
50652;BME280;61429;52.086;5.240;2022-09-30T10:37:50;100860.0;;;16.48;63.47
50652;BME280;61429;52.086;5.240;2022-09-30T10:39:29;100858.0;;;16.65;63.39
50652;BME280;61429;52.086;5.240;2022-09-30T10:42:45;100848.0;;;16.61;62.74
50652;BME280;61429;52.086;5.240;2022-09-30T10:44:23;100856.0;;;16.47;63.04
50652;BME280;61429;52.086;5.240;2022-09-30T10:46:02;100857.0;;;16.39;63.13
50652;BME280;61429;52.086;5.240;2022-09-30T10:49:25;100857.0;;;16.52;62.28
50652;BME280;61429;52.086;5.240;2022-09-30T10:51:04;100860.0;;;16.77;62.47
50652;BME280;61429;52.086;5.240;2022-09-30T10:52:57;100852.0;;;16.95;61.77
50652;BME280;61429;52.086;5.240;2022-09-30T10:54:48;100847.0;;;17.0;61.97
50652;BME280;61429;52.086;5.240;2022-09-30T10:56:35;100848.0;;;16.97;62.05
50652;BME280;61429;52.086;5.240;2022-09-30T10:58:24;100842.0;;;17.14;61.23
50652;BME280;61429;52.086;5.240;2022-09-30T11:01:54;100838.0;;;17.16;60.93
50652;BME280;61429;52.086;5.240;2022-09-30T11:03:37;100837.0;;;17.27;60.36
50652;BME280;61429;52.086;5.240;2022-09-30T11:05:21;100841.0;;;17.29;59.83
50652;BME280;61429;52.086;5.240;2022-09-30T11:07:01;100845.0;;;17.41;59.1
50652;BME280;61429;52.086;5.240;2022-09-30T11:08:52;100841.0;;;17.31;58.2
50652;BME280;61429;52.086;5.240;2022-09-30T11:12:22;100838.0;;;17.16;57.91
50652;BME280;61429;52.086;5.240;2022-09-30T11:14:15;100838.0;;;17.25;57.69
50652;BME280;61429;52.086;5.240;2022-09-30T11:16:02;100841.0;;;17.28;57.76
50652;BME280;61429;52.086;5.240;2022-09-30T11:17:46;100840.0;;;17.38;58.05